sensor_id;sensor_type;location;lat;lon;timestamp;pressure;altitude;pressure_sealevel;temperature;humidity
80938;BME280;70395;51.382;7.074;2023-06-14T00:01:52;100203.44;;;17.68;41.68
80938;BME280;70395;51.382;7.074;2023-06-14T00:04:18;100201.94;;;17.65;42.01
80938;BME280;70395;51.382;7.074;2023-06-14T00:06:46;100198.97;;;17.60;41.90
80938;BME280;70395;51.382;7.074;2023-06-14T00:09:12;100207.69;;;17.55;42.36
80938;BME280;70395;51.382;7.074;2023-06-14T00:11:42;100197.81;;;17.48;42.33
80938;BME280;70395;51.382;7.074;2023-06-14T00:14:08;100206.53;;;17.43;42.55
80938;BME280;70395;51.382;7.074;2023-06-14T00:16:34;100206.47;;;17.36;42.72
80938;BME280;70395;51.382;7.074;2023-06-14T00:19:01;100196.44;;;17.30;43.00
80938;BME280;70395;51.382;7.074;2023-06-14T00:21:30;100210.56;;;17.25;42.90
80938;BME280;70395;51.382;7.074;2023-06-14T00:23:57;100211.16;;;17.20;42.97
80938;BME280;70395;51.382;7.074;2023-06-14T00:26:23;100226.94;;;17.17;43.16
80938;BME280;70395;51.382;7.074;2023-06-14T00:28:51;100209.34;;;17.13;43.32
80938;BME280;70395;51.382;7.074;2023-06-14T00:31:17;100220.38;;;17.11;43.17
80938;BME280;70395;51.382;7.074;2023-06-14T00:33:42;100224.13;;;17.10;43.50
80938;BME280;70395;51.382;7.074;2023-06-14T00:36:08;100218.22;;;17.06;43.40
80938;BME280;70395;51.382;7.074;2023-06-14T00:38:34;100224.69;;;17.05;43.36
80938;BME280;70395;51.382;7.074;2023-06-14T00:41:00;100225.50;;;17.06;43.47
80938;BME280;70395;51.382;7.074;2023-06-14T00:43:26;100222.16;;;17.04;43.04
80938;BME280;70395;51.382;7.074;2023-06-14T00:45:52;100230.50;;;17.02;43.52
80938;BME280;70395;51.382;7.074;2023-06-14T00:48:18;100230.69;;;17.00;43.55
80938;BME280;70395;51.382;7.074;2023-06-14T00:50:45;100230.00;;;16.98;43.40
80938;BME280;70395;51.382;7.074;2023-06-14T00:53:12;100231.06;;;16.97;43.86
80938;BME280;70395;51.382;7.074;2023-06-14T00:55:41;100233.13;;;16.95;44.29
80938;BME280;70395;51.382;7.074;2023-06-14T00:58:07;100235.34;;;16.92;44.68
80938;BME280;70395;51.382;7.074;2023-06-14T01:00:34;100237.41;;;16.89;44.83
80938;BME280;70395;51.382;7.074;2023-06-14T01:03:00;100233.41;;;16.85;44.73
80938;BME280;70395;51.382;7.074;2023-06-14T01:05:27;100236.28;;;16.84;44.68
80938;BME280;70395;51.382;7.074;2023-06-14T01:13:34;100245.75;;;16.73;45.01
80938;BME280;70395;51.382;7.074;2023-06-14T01:16:02;100244.91;;;16.72;45.00
80938;BME280;70395;51.382;7.074;2023-06-14T01:18:29;100249.69;;;16.70;44.94
80938;BME280;70395;51.382;7.074;2023-06-14T01:20:55;100248.00;;;16.69;45.10
80938;BME280;70395;51.382;7.074;2023-06-14T01:23:23;100239.88;;;16.69;45.00
80938;BME280;70395;51.382;7.074;2023-06-14T01:25:50;100246.31;;;16.68;44.95
80938;BME280;70395;51.382;7.074;2023-06-14T01:28:21;100247.53;;;16.65;45.15
80938;BME280;70395;51.382;7.074;2023-06-14T01:30:51;100253.78;;;16.66;45.29
80938;BME280;70395;51.382;7.074;2023-06-14T01:33:21;100251.47;;;16.63;45.39
80938;BME280;70395;51.382;7.074;2023-06-14T01:35:50;100254.38;;;16.61;45.49
80938;BME280;70395;51.382;7.074;2023-06-14T01:38:20;100242.69;;;16.61;45.32
80938;BME280;70395;51.382;7.074;2023-06-14T01:40:48;100234.75;;;16.59;45.25
80938;BME280;70395;51.382;7.074;2023-06-14T01:43:18;100231.00;;;16.60;45.38
80938;BME280;70395;51.382;7.074;2023-06-14T01:45:47;100238.13;;;16.61;45.48
80938;BME280;70395;51.382;7.074;2023-06-14T01:48:15;100239.78;;;16.62;45.34
80938;BME280;70395;51.382;7.074;2023-06-14T01:50:41;100233.16;;;16.65;45.12
80938;BME280;70395;51.382;7.074;2023-06-14T01:53:09;100245.69;;;16.66;45.47
80938;BME280;70395;51.382;7.074;2023-06-14T01:55:35;100248.84;;;16.70;45.19
80938;BME280;70395;51.382;7.074;2023-06-14T01:58:05;100240.72;;;16.70;45.37
80938;BME280;70395;51.382;7.074;2023-06-14T02:00:32;100253.88;;;16.73;45.61
80938;BME280;70395;51.382;7.074;2023-06-14T02:02:58;100240.34;;;16.73;45.31
80938;BME280;70395;51.382;7.074;2023-06-14T02:05:24;100251.16;;;16.73;45.17
80938;BME280;70395;51.382;7.074;2023-06-14T02:07:50;100240.34;;;16.73;45.56
80938;BME280;70395;51.382;7.074;2023-06-14T02:10:16;100250.31;;;16.72;45.98
80938;BME280;70395;51.382;7.074;2023-06-14T02:12:43;100247.81;;;16.71;45.83
80938;BME280;70395;51.382;7.074;2023-06-14T02:15:10;100242.56;;;16.69;45.72
80938;BME280;70395;51.382;7.074;2023-06-14T02:17:51;100248.56;;;16.64;45.84
80938;BME280;70395;51.382;7.074;2023-06-14T02:20:17;100250.25;;;16.65;45.32
80938;BME280;70395;51.382;7.074;2023-06-14T02:22:44;100256.66;;;16.64;45.80
80938;BME280;70395;51.382;7.074;2023-06-14T02:25:10;100254.16;;;16.63;45.85
80938;BME280;70395;51.382;7.074;2023-06-14T02:27:36;100252.47;;;16.62;45.58
80938;BME280;70395;51.382;7.074;2023-06-14T02:30:02;100249.97;;;16.60;45.44
80938;BME280;70395;51.382;7.074;2023-06-14T02:32:28;100251.19;;;16.58;45.73
80938;BME280;70395;51.382;7.074;2023-06-14T02:34:54;100252.19;;;16.57;45.75
80938;BME280;70395;51.382;7.074;2023-06-14T02:37:20;100250.53;;;16.55;45.25
80938;BME280;70395;51.382;7.074;2023-06-14T02:39:46;100252.59;;;16.53;45.95
80938;BME280;70395;51.382;7.074;2023-06-14T02:42:12;100266.28;;;16.52;46.13
80938;BME280;70395;51.382;7.074;2023-06-14T02:44:38;100263.13;;;16.48;45.96
80938;BME280;70395;51.382;7.074;2023-06-14T02:47:04;100258.94;;;16.46;46.67
80938;BME280;70395;51.382;7.074;2023-06-14T02:49:30;100266.56;;;16.42;46.90
80938;BME280;70395;51.382;7.074;2023-06-14T02:51:56;100269.66;;;16.39;46.98
80938;BME280;70395;51.382;7.074;2023-06-14T02:54:22;100261.91;;;16.36;46.89
80938;BME280;70395;51.382;7.074;2023-06-14T02:56:48;100264.97;;;16.32;46.66
80938;BME280;70395;51.382;7.074;2023-06-14T02:59:14;100270.78;;;16.29;46.91
80938;BME280;70395;51.382;7.074;2023-06-14T03:01:40;100273.00;;;16.26;47.29
80938;BME280;70395;51.382;7.074;2023-06-14T03:04:10;100268.97;;;16.21;47.26
80938;BME280;70395;51.382;7.074;2023-06-14T03:06:36;100275.59;;;16.19;47.19
80938;BME280;70395;51.382;7.074;2023-06-14T03:09:03;100273.25;;;16.16;47.57
80938;BME280;70395;51.382;7.074;2023-06-14T03:11:34;100277.16;;;16.13;47.64
80938;BME280;70395;51.382;7.074;2023-06-14T03:14:01;100283.78;;;16.10;47.90
80938;BME280;70395;51.382;7.074;2023-06-14T03:16:29;100278.75;;;16.07;48.15
80938;BME280;70395;51.382;7.074;2023-06-14T03:18:55;100287.22;;;16.04;48.22
80938;BME280;70395;51.382;7.074;2023-06-14T03:21:21;100289.25;;;16.02;48.21
80938;BME280;70395;51.382;7.074;2023-06-14T03:23:48;100295.00;;;15.99;48.05
80938;BME280;70395;51.382;7.074;2023-06-14T03:26:15;100300.78;;;15.96;47.85
80938;BME280;70395;51.382;7.074;2023-06-14T03:28:47;100301.13;;;15.93;47.84
80938;BME280;70395;51.382;7.074;2023-06-14T03:31:15;100295.91;;;15.91;47.61
80938;BME280;70395;51.382;7.074;2023-06-14T03:33:41;100296.97;;;15.90;47.76
80938;BME280;70395;51.382;7.074;2023-06-14T03:36:07;100296.97;;;15.90;48.19
80938;BME280;70395;51.382;7.074;2023-06-14T03:38:34;100300.88;;;15.87;48.43
80938;BME280;70395;51.382;7.074;2023-06-14T03:41:00;100300.88;;;15.87;48.40
80938;BME280;70395;51.382;7.074;2023-06-14T03:43:26;100306.44;;;15.86;48.50
80938;BME280;70395;51.382;7.074;2023-06-14T03:45:52;100306.63;;;15.84;48.48
80938;BME280;70395;51.382;7.074;2023-06-14T03:48:18;100312.88;;;15.85;48.62
80938;BME280;70395;51.382;7.074;2023-06-14T03:50:44;100317.44;;;15.84;48.49
80938;BME280;70395;51.382;7.074;2023-06-14T03:53:10;100322.50;;;15.87;48.32
80938;BME280;70395;51.382;7.074;2023-06-14T03:55:36;100322.94;;;15.91;48.28
80938;BME280;70395;51.382;7.074;2023-06-14T03:58:03;100320.56;;;15.96;48.09
80938;BME280;70395;51.382;7.074;2023-06-14T04:00:29;100328.97;;;16.02;48.37
80938;BME280;70395;51.382;7.074;2023-06-14T04:02:55;100337.22;;;16.08;48.31
80938;BME280;70395;51.382;7.074;2023-06-14T04:05:21;100338.72;;;16.11;48.45
80938;BME280;70395;51.382;7.074;2023-06-14T04:07:47;100343.59;;;16.16;48.62
80938;BME280;70395;51.382;7.074;2023-06-14T04:10:15;100343.88;;;16.21;48.38
80938;BME280;70395;51.382;7.074;2023-06-14T04:12:42;100342.47;;;16.25;48.66
80938;BME280;70395;51.382;7.074;2023-06-14T04:15:09;100339.22;;;16.30;48.93
80938;BME280;70395;51.382;7.074;2023-06-14T04:17:36;100343.72;;;16.38;48.47
80938;BME280;70395;51.382;7.074;2023-06-14T04:20:03;100357.84;;;16.48;47.81
80938;BME280;70395;51.382;7.074;2023-06-14T04:22:31;100352.34;;;16.57;47.95
80938;BME280;70395;51.382;7.074;2023-06-14T04:24:57;100353.75;;;16.68;47.55
80938;BME280;70395;51.382;7.074;2023-06-14T04:27:26;100363.47;;;16.77;47.78
80938;BME280;70395;51.382;7.074;2023-06-14T04:29:53;100363.03;;;16.88;47.51
80938;BME280;70395;51.382;7.074;2023-06-14T04:32:29;100364.63;;;16.98;47.22
80938;BME280;70395;51.382;7.074;2023-06-14T04:35:08;100365.84;;;17.10;47.26
80938;BME280;70395;51.382;7.074;2023-06-14T04:37:34;100365.56;;;17.20;47.07
80938;BME280;70395;51.382;7.074;2023-06-14T04:40:00;100359.84;;;17.30;47.03
80938;BME280;70395;51.382;7.074;2023-06-14T04:42:26;100372.28;;;17.40;46.68
80938;BME280;70395;51.382;7.074;2023-06-14T04:44:56;100366.06;;;17.46;46.89
80938;BME280;70395;51.382;7.074;2023-06-14T04:47:22;100364.94;;;17.55;46.42
80938;BME280;70395;51.382;7.074;2023-06-14T04:49:51;100371.09;;;17.64;46.51
80938;BME280;70395;51.382;7.074;2023-06-14T04:52:19;100371.81;;;17.73;46.20
80938;BME280;70395;51.382;7.074;2023-06-14T04:54:47;100373.34;;;17.83;46.45
80938;BME280;70395;51.382;7.074;2023-06-14T04:57:12;100384.94;;;17.92;46.41
80938;BME280;70395;51.382;7.074;2023-06-14T04:59:40;100385.84;;;17.99;45.97
80938;BME280;70395;51.382;7.074;2023-06-14T05:02:06;100377.56;;;18.07;45.89
80938;BME280;70395;51.382;7.074;2023-06-14T05:04:33;100384.53;;;18.17;45.83
80938;BME280;70395;51.382;7.074;2023-06-14T05:06:59;100372.94;;;18.23;45.62
80938;BME280;70395;51.382;7.074;2023-06-14T05:09:25;100375.50;;;18.31;45.29
80938;BME280;70395;51.382;7.074;2023-06-14T05:11:51;100381.66;;;18.40;45.11
80938;BME280;70395;51.382;7.074;2023-06-14T05:14:16;100379.63;;;18.49;45.19
80938;BME280;70395;51.382;7.074;2023-06-14T05:16:43;100386.84;;;18.64;44.40
80938;BME280;70395;51.382;7.074;2023-06-14T05:19:09;100387.13;;;18.76;44.48
80938;BME280;70395;51.382;7.074;2023-06-14T05:21:36;100383.22;;;18.85;43.92
80938;BME280;70395;51.382;7.074;2023-06-14T05:24:03;100392.06;;;18.94;43.96
80938;BME280;70395;51.382;7.074;2023-06-14T05:26:29;100396.91;;;19.06;43.62
80938;BME280;70395;51.382;7.074;2023-06-14T05:28:56;100393.84;;;19.16;44.20
80938;BME280;70395;51.382;7.074;2023-06-14T05:31:24;100394.75;;;19.23;43.06
80938;BME280;70395;51.382;7.074;2023-06-14T05:33:52;100393.13;;;19.29;43.11
80938;BME280;70395;51.382;7.074;2023-06-14T05:36:19;100395.63;;;19.30;43.41
80938;BME280;70395;51.382;7.074;2023-06-14T05:38:45;100389.78;;;19.33;43.17
80938;BME280;70395;51.382;7.074;2023-06-14T05:41:11;100400.88;;;19.39;42.98
80938;BME280;70395;51.382;7.074;2023-06-14T05:43:37;100400.91;;;19.45;42.68
80938;BME280;70395;51.382;7.074;2023-06-14T05:46:03;100400.09;;;19.52;43.09
80938;BME280;70395;51.382;7.074;2023-06-14T05:48:30;100401.63;;;19.61;42.87
80938;BME280;70395;51.382;7.074;2023-06-14T05:50:57;100404.13;;;19.69;42.10
80938;BME280;70395;51.382;7.074;2023-06-14T05:53:22;100411.50;;;19.76;42.10
80938;BME280;70395;51.382;7.074;2023-06-14T05:55:50;100406.91;;;19.83;42.03
80938;BME280;70395;51.382;7.074;2023-06-14T05:58:18;100418.03;;;19.95;42.36
80938;BME280;70395;51.382;7.074;2023-06-14T06:00:45;100420.34;;;20.05;41.71
80938;BME280;70395;51.382;7.074;2023-06-14T06:03:11;100417.03;;;20.17;41.59
80938;BME280;70395;51.382;7.074;2023-06-14T06:05:39;100417.03;;;20.23;41.63
80938;BME280;70395;51.382;7.074;2023-06-14T06:08:04;100418.50;;;20.33;41.60
80938;BME280;70395;51.382;7.074;2023-06-14T06:10:31;100412.03;;;20.41;41.35
80938;BME280;70395;51.382;7.074;2023-06-14T06:12:57;100412.03;;;20.47;40.93
80938;BME280;70395;51.382;7.074;2023-06-14T06:15:23;100423.56;;;20.56;41.12
80938;BME280;70395;51.382;7.074;2023-06-14T06:17:48;100421.25;;;20.67;40.89
80938;BME280;70395;51.382;7.074;2023-06-14T06:20:14;100419.78;;;20.78;40.07
80938;BME280;70395;51.382;7.074;2023-06-14T06:22:40;100420.38;;;20.87;40.36
80938;BME280;70395;51.382;7.074;2023-06-14T06:25:07;100424.56;;;20.96;39.76
80938;BME280;70395;51.382;7.074;2023-06-14T06:27:33;100415.16;;;21.06;39.28
80938;BME280;70395;51.382;7.074;2023-06-14T06:29:58;100419.31;;;21.15;39.56
80938;BME280;70395;51.382;7.074;2023-06-14T06:32:24;100419.50;;;21.20;39.75
80938;BME280;70395;51.382;7.074;2023-06-14T06:34:50;100432.09;;;21.28;39.26
80938;BME280;70395;51.382;7.074;2023-06-14T06:37:17;100423.88;;;21.35;38.88
80938;BME280;70395;51.382;7.074;2023-06-14T06:39:43;100428.03;;;21.44;38.18
80938;BME280;70395;51.382;7.074;2023-06-14T06:42:09;100435.38;;;21.51;38.34
80938;BME280;70395;51.382;7.074;2023-06-14T06:44:36;100434.06;;;21.60;37.99
80938;BME280;70395;51.382;7.074;2023-06-14T06:47:02;100443.66;;;21.69;37.83
80938;BME280;70395;51.382;7.074;2023-06-14T06:49:28;100431.66;;;21.77;37.77
80938;BME280;70395;51.382;7.074;2023-06-14T06:52:05;100445.28;;;21.84;36.93
80938;BME280;70395;51.382;7.074;2023-06-14T06:54:32;100444.41;;;21.90;36.88
80938;BME280;70395;51.382;7.074;2023-06-14T06:56:58;100450.28;;;21.94;36.93
80938;BME280;70395;51.382;7.074;2023-06-14T06:59:24;100446.47;;;22.02;36.34
80938;BME280;70395;51.382;7.074;2023-06-14T07:01:50;100456.06;;;22.11;36.62
80938;BME280;70395;51.382;7.074;2023-06-14T07:04:16;100461.66;;;22.23;36.29
80938;BME280;70395;51.382;7.074;2023-06-14T07:06:43;100447.53;;;22.33;35.59
80938;BME280;70395;51.382;7.074;2023-06-14T07:09:09;100452.25;;;22.45;36.13
80938;BME280;70395;51.382;7.074;2023-06-14T07:11:44;100456.56;;;22.59;35.86
80938;BME280;70395;51.382;7.074;2023-06-14T07:14:11;100452.69;;;22.74;35.27
80938;BME280;70395;51.382;7.074;2023-06-14T07:16:37;100458.25;;;22.86;35.37
80938;BME280;70395;51.382;7.074;2023-06-14T07:19:03;100455.25;;;22.94;34.77
80938;BME280;70395;51.382;7.074;2023-06-14T07:21:29;100459.16;;;23.05;34.89
80938;BME280;70395;51.382;7.074;2023-06-14T07:23:56;100458.16;;;23.18;34.26
80938;BME280;70395;51.382;7.074;2023-06-14T07:26:22;100462.84;;;23.30;34.00
80938;BME280;70395;51.382;7.074;2023-06-14T07:28:49;100464.25;;;23.39;34.46
80938;BME280;70395;51.382;7.074;2023-06-14T07:31:18;100454.47;;;23.50;33.49
80938;BME280;70395;51.382;7.074;2023-06-14T07:33:45;100454.50;;;23.62;33.06
80938;BME280;70395;51.382;7.074;2023-06-14T07:36:11;100460.53;;;23.71;32.91
80938;BME280;70395;51.382;7.074;2023-06-14T07:38:37;100455.81;;;23.79;33.04
80938;BME280;70395;51.382;7.074;2023-06-14T07:41:03;100458.81;;;23.89;33.14
80938;BME280;70395;51.382;7.074;2023-06-14T07:43:29;100460.16;;;23.99;32.88
80938;BME280;70395;51.382;7.074;2023-06-14T07:45:55;100451.59;;;24.07;32.98
80938;BME280;70395;51.382;7.074;2023-06-14T07:48:22;100457.13;;;24.19;32.86
80938;BME280;70395;51.382;7.074;2023-06-14T07:50:48;100459.91;;;24.31;32.79
80938;BME280;70395;51.382;7.074;2023-06-14T07:53:14;100462.72;;;24.43;33.35
80938;BME280;70395;51.382;7.074;2023-06-14T07:55:40;100474.28;;;24.57;32.62
80938;BME280;70395;51.382;7.074;2023-06-14T07:58:09;100460.22;;;24.66;32.63
80938;BME280;70395;51.382;7.074;2023-06-14T08:00:36;100466.91;;;24.70;31.57
80938;BME280;70395;51.382;7.074;2023-06-14T08:03:02;100473.69;;;24.67;31.48
80938;BME280;70395;51.382;7.074;2023-06-14T08:05:28;100473.47;;;24.69;31.88
80938;BME280;70395;51.382;7.074;2023-06-14T08:07:55;100476.31;;;24.74;31.31
80938;BME280;70395;51.382;7.074;2023-06-14T08:10:22;100475.38;;;24.80;31.58
80938;BME280;70395;51.382;7.074;2023-06-14T08:12:48;100475.84;;;24.89;30.89
80938;BME280;70395;51.382;7.074;2023-06-14T08:15:16;100482.28;;;24.95;31.55
80938;BME280;70395;51.382;7.074;2023-06-14T08:17:45;100470.16;;;25.03;31.79
80938;BME280;70395;51.382;7.074;2023-06-14T08:20:12;100478.88;;;25.12;30.43
80938;BME280;70395;51.382;7.074;2023-06-14T08:22:39;100479.34;;;25.08;30.56
80938;BME280;70395;51.382;7.074;2023-06-14T08:25:08;100484.72;;;25.03;30.94
80938;BME280;70395;51.382;7.074;2023-06-14T08:27:35;100477.31;;;25.04;31.18
80938;BME280;70395;51.382;7.074;2023-06-14T08:30:01;100477.44;;;25.09;30.69
80938;BME280;70395;51.382;7.074;2023-06-14T08:32:28;100475.41;;;25.04;30.42
80938;BME280;70395;51.382;7.074;2023-06-14T08:34:53;100481.47;;;24.94;30.97
80938;BME280;70395;51.382;7.074;2023-06-14T08:37:19;100487.66;;;24.90;30.90
80938;BME280;70395;51.382;7.074;2023-06-14T08:39:46;100487.75;;;24.95;31.00
80938;BME280;70395;51.382;7.074;2023-06-14T08:42:14;100481.38;;;25.01;30.36
80938;BME280;70395;51.382;7.074;2023-06-14T08:44:40;100489.59;;;25.13;30.19
80938;BME280;70395;51.382;7.074;2023-06-14T08:47:07;100482.53;;;25.17;29.97
80938;BME280;70395;51.382;7.074;2023-06-14T08:49:37;100493.50;;;25.17;29.88
80938;BME280;70395;51.382;7.074;2023-06-14T08:52:08;100491.13;;;25.21;29.08
80938;BME280;70395;51.382;7.074;2023-06-14T08:54:36;100483.03;;;25.26;28.77
80938;BME280;70395;51.382;7.074;2023-06-14T08:57:13;100489.56;;;25.25;28.91
80938;BME280;70395;51.382;7.074;2023-06-14T08:59:46;100492.69;;;25.17;28.62
80938;BME280;70395;51.382;7.074;2023-06-14T09:02:18;100485.53;;;25.16;29.22
80938;BME280;70395;51.382;7.074;2023-06-14T09:04:48;100489.25;;;25.22;28.92
80938;BME280;70395;51.382;7.074;2023-06-14T09:07:15;100475.50;;;25.34;29.22
80938;BME280;70395;51.382;7.074;2023-06-14T09:09:41;100473.06;;;25.49;28.79
80938;BME280;70395;51.382;7.074;2023-06-14T09:12:11;100487.38;;;25.63;29.15
80938;BME280;70395;51.382;7.074;2023-06-14T09:14:38;100485.31;;;25.83;29.03
80938;BME280;70395;51.382;7.074;2023-06-14T09:17:06;100472.69;;;25.99;28.34
80938;BME280;70395;51.382;7.074;2023-06-14T09:19:33;100480.41;;;26.14;28.36
80938;BME280;70395;51.382;7.074;2023-06-14T09:22:00;100487.16;;;26.24;28.23
80938;BME280;70395;51.382;7.074;2023-06-14T09:24:26;100488.75;;;26.37;28.44
80938;BME280;70395;51.382;7.074;2023-06-14T09:26:51;100482.22;;;26.55;27.15
80938;BME280;70395;51.382;7.074;2023-06-14T09:29:20;100478.97;;;26.75;27.04
80938;BME280;70395;51.382;7.074;2023-06-14T09:31:47;100476.16;;;27.27;27.19
80938;BME280;70395;51.382;7.074;2023-06-14T09:34:13;100482.66;;;28.11;25.51
80938;BME280;70395;51.382;7.074;2023-06-14T09:36:40;100489.47;;;29.02;24.82
80938;BME280;70395;51.382;7.074;2023-06-14T09:39:09;100482.97;;;29.78;23.52
80938;BME280;70395;51.382;7.074;2023-06-14T09:41:39;100493.88;;;30.32;23.24
80938;BME280;70395;51.382;7.074;2023-06-14T09:44:07;100493.00;;;31.05;22.50
80938;BME280;70395;51.382;7.074;2023-06-14T09:46:35;100484.56;;;31.52;21.73
80938;BME280;70395;51.382;7.074;2023-06-14T09:49:02;100488.38;;;31.66;21.27
80938;BME280;70395;51.382;7.074;2023-06-14T09:51:29;100491.13;;;31.72;20.17
80938;BME280;70395;51.382;7.074;2023-06-14T09:54:03;100484.59;;;31.97;20.62
80938;BME280;70395;51.382;7.074;2023-06-14T09:56:37;100492.84;;;32.13;20.06
80938;BME280;70395;51.382;7.074;2023-06-14T09:59:05;100488.25;;;32.33;20.30
80938;BME280;70395;51.382;7.074;2023-06-14T10:01:41;100495.09;;;32.81;20.00
80938;BME280;70395;51.382;7.074;2023-06-14T10:04:09;100503.56;;;33.44;19.34
80938;BME280;70395;51.382;7.074;2023-06-14T10:06:45;100504.69;;;33.87;18.22
80938;BME280;70395;51.382;7.074;2023-06-14T10:09:12;100497.25;;;34.21;18.22
80938;BME280;70395;51.382;7.074;2023-06-14T10:11:38;100494.69;;;34.44;17.89
80938;BME280;70395;51.382;7.074;2023-06-14T10:14:11;100500.09;;;34.69;17.69
80938;BME280;70395;51.382;7.074;2023-06-14T10:17:03;100495.53;;;35.07;17.75
80938;BME280;70395;51.382;7.074;2023-06-14T10:19:56;100497.31;;;35.59;17.15
80938;BME280;70395;51.382;7.074;2023-06-14T10:22:35;100502.63;;;35.83;16.69
80938;BME280;70395;51.382;7.074;2023-06-14T10:25:07;100504.56;;;35.83;16.82
80938;BME280;70395;51.382;7.074;2023-06-14T10:27:38;100494.41;;;35.64;16.73
80938;BME280;70395;51.382;7.074;2023-06-14T10:30:07;100488.22;;;35.53;16.43
80938;BME280;70395;51.382;7.074;2023-06-14T10:32:33;100490.28;;;35.61;17.28
80938;BME280;70395;51.382;7.074;2023-06-14T10:35:04;100494.56;;;35.96;17.00
80938;BME280;70395;51.382;7.074;2023-06-14T10:37:31;100478.75;;;36.14;16.58
80938;BME280;70395;51.382;7.074;2023-06-14T10:39:57;100485.94;;;36.29;16.34
80938;BME280;70395;51.382;7.074;2023-06-14T10:42:36;100483.88;;;36.21;17.00
80938;BME280;70395;51.382;7.074;2023-06-14T10:45:02;100475.84;;;36.20;16.90
80938;BME280;70395;51.382;7.074;2023-06-14T10:47:34;100471.66;;;36.31;17.45
80938;BME280;70395;51.382;7.074;2023-06-14T10:50:11;100476.28;;;36.59;16.35
80938;BME280;70395;51.382;7.074;2023-06-14T10:52:41;100468.91;;;36.63;16.04
80938;BME280;70395;51.382;7.074;2023-06-14T10:55:17;100479.84;;;36.50;16.05
80938;BME280;70395;51.382;7.074;2023-06-14T10:57:44;100480.78;;;36.46;15.95
80938;BME280;70395;51.382;7.074;2023-06-14T11:00:19;100477.28;;;36.63;16.05
80938;BME280;70395;51.382;7.074;2023-06-14T11:05:58;100484.13;;;37.21;15.29
80938;BME280;70395;51.382;7.074;2023-06-14T11:10:59;100476.88;;;36.47;15.55
80938;BME280;70395;51.382;7.074;2023-06-14T11:13:26;100473.22;;;36.69;16.04
80938;BME280;70395;51.382;7.074;2023-06-14T11:15:52;100482.81;;;37.18;16.13
80938;BME280;70395;51.382;7.074;2023-06-14T11:18:21;100477.47;;;37.48;15.21
80938;BME280;70395;51.382;7.074;2023-06-14T11:20:50;100477.16;;;37.85;14.78
80938;BME280;70395;51.382;7.074;2023-06-14T11:23:16;100472.56;;;38.16;14.76
80938;BME280;70395;51.382;7.074;2023-06-14T11:25:42;100476.50;;;38.24;15.10
80938;BME280;70395;51.382;7.074;2023-06-14T11:28:08;100481.59;;;38.31;14.68
80938;BME280;70395;51.382;7.074;2023-06-14T11:30:34;100469.72;;;38.52;14.80
80938;BME280;70395;51.382;7.074;2023-06-14T11:33:00;100474.69;;;38.94;14.59
80938;BME280;70395;51.382;7.074;2023-06-14T11:35:26;100478.22;;;38.82;14.26
80938;BME280;70395;51.382;7.074;2023-06-14T11:37:56;100485.53;;;38.48;14.57
80938;BME280;70395;51.382;7.074;2023-06-14T11:40:27;100471.56;;;38.39;14.92
80938;BME280;70395;51.382;7.074;2023-06-14T11:43:01;100478.41;;;38.68;14.82
80938;BME280;70395;51.382;7.074;2023-06-14T11:45:27;100463.03;;;39.14;13.83
80938;BME280;70395;51.382;7.074;2023-06-14T11:47:55;100472.41;;;39.48;14.13
80938;BME280;70395;51.382;7.074;2023-06-14T11:50:25;100464.34;;;39.90;13.86
80938;BME280;70395;51.382;7.074;2023-06-14T11:52:56;100462.47;;;40.15;13.88
80938;BME280;70395;51.382;7.074;2023-06-14T11:55:23;100472.97;;;40.06;13.37
80938;BME280;70395;51.382;7.074;2023-06-14T11:57:50;100463.41;;;39.85;13.46
80938;BME280;70395;51.382;7.074;2023-06-14T12:00:17;100464.94;;;39.83;13.65
80938;BME280;70395;51.382;7.074;2023-06-14T12:02:52;100466.13;;;39.73;13.53
80938;BME280;70395;51.382;7.074;2023-06-14T12:05:22;100473.13;;;39.67;13.65
80938;BME280;70395;51.382;7.074;2023-06-14T12:07:48;100468.69;;;39.87;13.30
80938;BME280;70395;51.382;7.074;2023-06-14T12:10:16;100462.22;;;40.08;13.27
80938;BME280;70395;51.382;7.074;2023-06-14T12:12:42;100470.34;;;40.22;13.08
80938;BME280;70395;51.382;7.074;2023-06-14T12:15:09;100460.97;;;40.18;13.69
80938;BME280;70395;51.382;7.074;2023-06-14T12:17:39;100455.41;;;39.96;13.86
80938;BME280;70395;51.382;7.074;2023-06-14T12:20:13;100463.94;;;40.00;13.39
80938;BME280;70395;51.382;7.074;2023-06-14T12:22:59;100461.97;;;40.01;13.74
80938;BME280;70395;51.382;7.074;2023-06-14T12:25:35;100462.94;;;40.17;13.19
80938;BME280;70395;51.382;7.074;2023-06-14T12:28:08;100459.50;;;39.99;13.35
80938;BME280;70395;51.382;7.074;2023-06-14T12:30:36;100454.69;;;40.00;13.55
80938;BME280;70395;51.382;7.074;2023-06-14T12:33:03;100446.28;;;40.00;13.36
80938;BME280;70395;51.382;7.074;2023-06-14T12:35:30;100458.81;;;40.02;13.47
80938;BME280;70395;51.382;7.074;2023-06-14T12:37:56;100454.50;;;40.05;13.58
80938;BME280;70395;51.382;7.074;2023-06-14T12:40:22;100454.69;;;40.00;13.60
80938;BME280;70395;51.382;7.074;2023-06-14T12:42:48;100462.19;;;39.95;13.36
80938;BME280;70395;51.382;7.074;2023-06-14T12:45:15;100462.69;;;39.76;13.37
80938;BME280;70395;51.382;7.074;2023-06-14T12:47:41;100453.16;;;39.47;13.71
80938;BME280;70395;51.382;7.074;2023-06-14T12:50:08;100453.00;;;39.64;13.73
80938;BME280;70395;51.382;7.074;2023-06-14T12:52:33;100453.03;;;39.86;13.57
80938;BME280;70395;51.382;7.074;2023-06-14T12:55:04;100458.91;;;39.72;13.08
80938;BME280;70395;51.382;7.074;2023-06-14T12:57:30;100455.19;;;39.59;13.57
80938;BME280;70395;51.382;7.074;2023-06-14T12:59:56;100466.84;;;39.70;14.02
80938;BME280;70395;51.382;7.074;2023-06-14T13:02:22;100454.38;;;39.80;13.48
80938;BME280;70395;51.382;7.074;2023-06-14T13:04:50;100460.94;;;40.05;13.49